Time;durP1;ratioP1;P1;durP2;ratioP2;P2;SDS_P1;SDS_P2;PMS_P1;PMS_P2;Temp;Humidity;BMP_temperature;BMP_pressure;BME280_temperature;BME280_humidity;BME280_pressure;Samples;Min_cycle;Max_cycle;Signal;HPM_P1;HPM_P2
2023/07/17 00:00:21;;;;;;;5.70;2.20;;;;;;;20.69;60.88;101569.63;5049982;28;20120;-46
2023/07/17 00:02:47;;;;;;;9.00;2.20;;;;;;;20.55;61.45;101561.06;5049488;28;20045;-45
2023/07/17 00:05:12;;;;;;;9.93;2.50;;;;;;;20.39;61.87;101565.72;5049257;28;20037;-44
2023/07/17 00:07:41;;;;;;;9.48;2.50;;;;;;;20.53;61.69;101566.38;5049451;28;20095;-43
2023/07/17 00:10:08;;;;;;;6.80;2.20;;;;;;;20.62;61.20;101567.97;5048670;28;20073;-43
2023/07/17 00:12:33;;;;;;;6.63;2.25;;;;;;;20.60;61.02;101564.50;5048987;28;20041;-48
2023/07/17 00:14:59;;;;;;;8.25;2.33;;;;;;;20.62;60.93;101563.56;5048842;28;25083;-46
2023/07/17 00:17:24;;;;;;;5.63;2.10;;;;;;;20.47;61.57;101565.59;5049288;28;20136;-44
2023/07/17 00:19:57;;;;;;;9.07;2.50;;;;;;;20.45;61.33;101565.63;5048297;28;20064;-49
2023/07/17 00:22:23;;;;;;;6.78;2.15;;;;;;;20.40;61.80;101563.94;5049247;28;20029;-47
2023/07/17 00:24:49;;;;;;;8.38;2.53;;;;;;;20.42;61.27;101560.38;5048774;28;20044;-43
2023/07/17 00:27:15;;;;;;;8.30;2.45;;;;;;;20.43;61.24;101567.41;5048925;28;20118;-45
2023/07/17 00:29:43;;;;;;;6.55;1.92;;;;;;;20.46;61.28;101569.13;5048097;28;20059;-44
2023/07/17 00:32:10;;;;;;;6.75;2.00;;;;;;;20.47;60.90;101576.19;5048915;28;20395;-43
2023/07/17 00:34:35;;;;;;;7.75;2.40;;;;;;;20.41;61.39;101571.88;5049566;28;20130;-44
2023/07/17 00:37:00;;;;;;;5.20;2.10;;;;;;;20.22;62.44;101568.59;5049664;28;20083;-45
2023/07/17 00:39:26;;;;;;;8.73;2.30;;;;;;;20.24;62.29;101572.09;5051271;28;20498;-45
2023/07/17 00:41:51;;;;;;;9.50;2.22;;;;;;;20.32;62.01;101581.69;5050548;28;20454;-44
2023/07/17 00:44:17;;;;;;;7.38;2.30;;;;;;;20.30;62.20;101573.78;5050383;28;20484;-45
2023/07/17 00:46:43;;;;;;;5.22;2.30;;;;;;;20.37;61.81;101572.78;5050395;28;20037;-44
2023/07/17 00:49:10;;;;;;;9.57;2.13;;;;;;;20.40;61.61;101575.41;5050536;28;20126;-44
2023/07/17 00:51:38;;;;;;;8.80;2.20;;;;;;;20.39;61.34;101571.00;5051792;28;20040;-46
2023/07/17 00:54:06;;;;;;;8.55;2.50;;;;;;;20.27;62.01;101571.16;5050624;28;20041;-43
2023/07/17 00:56:31;;;;;;;8.70;2.17;;;;;;;20.38;61.55;101577.19;5051388;28;20029;-43
2023/07/17 00:58:58;;;;;;;9.30;2.45;;;;;;;20.28;62.06;101578.22;5050940;28;20048;-44
2023/07/17 01:01:23;;;;;;;8.32;2.20;;;;;;;20.36;61.62;101571.06;5050881;28;20120;-43
2023/07/17 01:03:55;;;;;;;7.28;2.35;;;;;;;20.24;61.62;101576.53;5049304;28;20059;-43
2023/07/17 01:06:20;;;;;;;8.38;2.20;;;;;;;20.38;61.67;101584.28;5048846;28;20029;-48
2023/07/17 01:08:46;;;;;;;8.30;2.35;;;;;;;20.43;61.31;101587.75;5049661;28;20040;-44
2023/07/17 01:11:11;;;;;;;8.93;2.60;;;;;;;20.40;61.33;101582.47;5052194;28;20032;-43
2023/07/17 01:13:45;;;;;;;6.78;2.53;;;;;;;20.29;61.75;101587.03;5052601;28;20032;-44
2023/07/17 01:16:10;;;;;;;8.63;2.50;;;;;;;20.30;61.50;101586.16;5052195;28;20025;-45
2023/07/17 01:18:36;;;;;;;6.95;2.30;;;;;;;20.11;62.47;101589.06;5052637;28;20511;-44
2023/07/17 01:21:02;;;;;;;8.55;2.45;;;;;;;20.12;62.11;101592.59;5051603;28;20025;-45
2023/07/17 01:23:28;;;;;;;8.55;2.60;;;;;;;20.09;62.42;101589.97;5052801;28;20029;-45
2023/07/17 01:25:54;;;;;;;8.57;2.60;;;;;;;20.11;62.03;101593.50;5052137;28;20059;-44
2023/07/17 01:28:19;;;;;;;7.70;2.35;;;;;;;20.17;61.89;101590.75;5051972;28;20048;-45
2023/07/17 01:30:45;;;;;;;10.90;2.88;;;;;;;20.01;62.41;101594.50;5051208;28;20479;-44
2023/07/17 01:33:11;;;;;;;9.80;2.78;;;;;;;20.04;62.32;101589.16;5052679;28;20040;-43
2023/07/17 01:35:36;;;;;;;6.38;2.30;;;;;;;20.23;61.72;101591.53;5052442;28;20041;-45
2023/07/17 01:38:01;;;;;;;8.23;2.40;;;;;;;20.25;61.58;101591.50;5051779;28;20276;-43
2023/07/17 01:40:27;;;;;;;9.60;2.65;;;;;;;20.24;62.14;101588.00;5051653;28;20045;-43
2023/07/17 01:42:52;;;;;;;13.15;3.08;;;;;;;20.29;61.93;101585.28;5051420;28;20111;-47
2023/07/17 01:45:17;;;;;;;7.38;2.45;;;;;;;20.45;61.43;101585.94;5051901;28;20569;-44
2023/07/17 01:47:43;;;;;;;11.65;2.63;;;;;;;20.18;62.45;101587.22;5051350;28;20380;-43
2023/07/17 01:50:09;;;;;;;9.02;2.70;;;;;;;20.41;61.55;101587.75;5051483;28;20552;-44
2023/07/17 01:52:34;;;;;;;9.00;2.47;;;;;;;20.43;61.29;101587.75;5051622;28;20037;-44
2023/07/17 01:54:59;;;;;;;9.57;2.92;;;;;;;20.42;61.04;101589.53;5051191;28;20053;-45
2023/07/17 01:57:25;;;;;;;10.35;3.00;;;;;;;20.49;60.77;101588.50;5051746;28;20040;-43
2023/07/17 01:59:50;;;;;;;8.05;2.80;;;;;;;20.31;61.40;101588.75;5050311;28;20045;-42
2023/07/17 02:02:15;;;;;;;11.05;3.00;;;;;;;20.39;60.86;101586.91;5051667;28;20044;-46
2023/07/17 02:04:41;;;;;;;10.93;3.15;;;;;;;20.34;60.86;101585.22;5050998;28;20160;-44
2023/07/17 02:07:06;;;;;;;10.25;3.28;;;;;;;20.24;61.24;101589.78;5051548;28;20387;-44
2023/07/17 02:09:31;;;;;;;13.52;3.10;;;;;;;20.27;60.88;101582.63;5050762;28;20029;-42
2023/07/17 02:11:57;;;;;;;12.35;3.00;;;;;;;20.38;60.74;101585.16;5050828;28;20380;-44
2023/07/17 02:14:22;;;;;;;9.60;3.08;;;;;;;20.42;60.65;101588.63;5033547;28;20037;-43
2023/07/17 02:16:48;;;;;;;8.30;3.15;;;;;;;20.50;61.26;101581.41;5050989;28;20052;-43
2023/07/17 02:19:14;;;;;;;9.52;3.25;;;;;;;20.49;60.68;101580.53;5050617;28;20052;-47
2023/07/17 02:21:39;;;;;;;10.65;3.20;;;;;;;20.46;60.75;101585.03;5050507;28;20408;-44
2023/07/17 02:24:05;;;;;;;10.25;3.40;;;;;;;20.70;60.11;101591.69;5051421;28;20029;-44
2023/07/17 02:26:30;;;;;;;12.38;3.63;;;;;;;20.35;61.20;101590.50;5051274;28;20033;-43
2023/07/17 02:28:55;;;;;;;11.43;3.70;;;;;;;20.38;61.14;101593.09;5050906;28;20029;-44
2023/07/17 02:31:21;;;;;;;9.63;4.10;;;;;;;20.30;61.00;101594.09;5050728;28;20499;-45
2023/07/17 02:33:46;;;;;;;11.02;3.60;;;;;;;20.38;60.80;101590.44;5050930;28;20121;-43
2023/07/17 02:36:12;;;;;;;8.05;3.65;;;;;;;20.36;60.62;101592.25;5051433;28;20033;-44
2023/07/17 02:38:37;;;;;;;10.50;3.90;;;;;;;20.33;60.67;101594.06;5031156;28;20432;-44
2023/07/17 02:41:02;;;;;;;8.70;3.78;;;;;;;20.30;60.81;101594.09;5051148;28;20139;-41
2023/07/17 02:43:28;;;;;;;13.25;4.13;;;;;;;20.30;61.13;101594.97;5052733;28;20029;-43
2023/07/17 02:45:53;;;;;;;13.40;3.97;;;;;;;20.35;61.03;101600.22;5051445;28;20143;-43
2023/07/17 02:48:18;;;;;;;11.68;3.95;;;;;;;20.36;61.02;101594.03;5050435;28;20511;-43
2023/07/17 02:50:44;;;;;;;12.38;4.50;;;;;;;20.36;60.60;101597.56;5049812;28;20036;-45
2023/07/17 02:53:09;;;;;;;14.77;4.60;;;;;;;20.37;61.04;101598.44;5050690;28;20361;-43
2023/07/17 02:55:35;;;;;;;11.20;4.05;;;;;;;20.43;60.63;101599.19;5050885;28;20518;-43
2023/07/17 02:58:00;;;;;;;13.68;4.68;;;;;;;20.48;60.04;101600.00;5049911;28;20415;-43
2023/07/17 03:00:25;;;;;;;17.13;5.13;;;;;;;20.40;60.21;101608.97;5050036;28;20037;-45
2023/07/17 03:02:51;;;;;;;13.65;4.82;;;;;;;20.35;60.29;101606.41;5049979;28;20385;-44
2023/07/17 03:05:16;;;;;;;13.85;4.88;;;;;;;20.33;60.29;101609.94;5050289;28;20041;-45
2023/07/17 03:07:44;;;;;;;12.10;4.57;;;;;;;20.22;60.68;101603.03;5049937;28;20033;-46
2023/07/17 03:10:11;;;;;;;15.38;4.90;;;;;;;20.30;60.46;101608.22;5050270;28;20029;-43
2023/07/17 03:12:37;;;;;;;13.48;4.80;;;;;;;20.19;60.98;101610.13;5050144;28;20075;-42
2023/07/17 03:15:04;;;;;;;13.05;4.82;;;;;;;20.17;61.04;101611.94;5049667;28;20033;-43
2023/07/17 03:17:30;;;;;;;16.00;5.28;;;;;;;20.11;61.05;101612.91;5049958;28;20037;-42
2023/07/17 03:19:55;;;;;;;18.42;5.65;;;;;;;20.17;60.88;101610.16;5049197;28;20131;-45
2023/07/17 03:22:20;;;;;;;12.95;4.97;;;;;;;20.12;60.96;101606.72;5050236;28;20075;-42
2023/07/17 03:24:46;;;;;;;15.85;4.93;;;;;;;19.95;61.39;101610.47;5048594;28;20116;-46
2023/07/17 03:27:11;;;;;;;16.15;4.90;;;;;;;20.11;60.69;101614.66;5048272;28;20142;-48
2023/07/17 03:29:36;;;;;;;14.88;5.18;;;;;;;20.16;60.46;101623.41;5049554;28;20048;-45
2023/07/17 03:32:02;;;;;;;18.60;5.55;;;;;;;19.93;61.53;101613.16;5049067;28;20067;-44
2023/07/17 03:34:27;;;;;;;13.95;5.03;;;;;;;20.04;61.14;101613.00;5050227;28;20526;-44
2023/07/17 03:36:53;;;;;;;13.38;5.18;;;;;;;20.14;60.56;101623.44;5047716;28;20036;-43
2023/07/17 03:39:19;;;;;;;16.15;5.35;;;;;;;20.04;60.70;101613.88;5049322;28;20071;-45
2023/07/17 03:41:44;;;;;;;15.50;5.55;;;;;;;20.00;60.99;101619.25;5049015;28;20072;-44
2023/07/17 03:44:10;;;;;;;13.68;5.07;;;;;;;20.17;60.26;101612.81;5047779;28;20029;-43
2023/07/17 03:46:35;;;;;;;14.27;5.25;;;;;;;19.95;60.79;101610.47;5050122;28;20091;-44
2023/07/17 03:49:00;;;;;;;15.27;5.50;;;;;;;20.10;60.63;101615.56;5049735;28;20387;-44
2023/07/17 03:51:26;;;;;;;12.88;5.18;;;;;;;20.11;60.33;101619.97;5049846;28;20039;-43
2023/07/17 03:53:51;;;;;;;16.23;5.97;;;;;;;20.02;60.75;101610.34;5049208;28;20471;-42
2023/07/17 03:56:17;;;;;;;14.65;5.40;;;;;;;20.15;60.61;101619.88;5047871;28;20033;-43
2023/07/17 03:58:42;;;;;;;18.58;5.95;;;;;;;20.21;59.62;101625.09;5049672;28;20399;-45
2023/07/17 04:01:08;;;;;;;12.48;5.35;;;;;;;20.33;59.27;101631.13;5048974;28;20067;-45
2023/07/17 04:03:33;;;;;;;22.83;5.95;;;;;;;19.94;63.84;101643.13;5049518;28;20491;-44
2023/07/17 04:05:58;;;;;;;15.07;5.45;;;;;;;20.19;62.34;101623.34;5048790;28;20057;-47
2023/07/17 04:08:24;;;;;;;16.48;5.75;;;;;;;19.86;64.27;101635.28;5049503;28;20071;-47
2023/07/17 04:10:49;;;;;;;12.75;5.35;;;;;;;19.82;64.60;101641.53;5048745;28;20045;-45
2023/07/17 04:13:14;;;;;;;12.80;4.90;;;;;;;19.99;63.29;101639.53;5050787;28;20032;-44
2023/07/17 04:15:41;;;;;;;13.40;4.78;;;;;;;19.95;63.47;101644.88;5051795;28;20033;-46
2023/07/17 04:18:06;;;;;;;14.52;5.18;;;;;;;19.61;64.97;101636.47;5052189;28;20446;-47
2023/07/17 04:20:32;;;;;;;14.18;4.70;;;;;;;19.73;64.50;101641.63;5053668;28;20029;-43
2023/07/17 04:22:58;;;;;;;12.63;4.95;;;;;;;19.70;64.82;101639.03;5052973;28;20376;-46
2023/07/17 04:25:23;;;;;;;14.20;4.70;;;;;;;19.78;64.20;101637.16;5034208;28;20033;-44
2023/07/17 04:27:49;;;;;;;13.48;4.80;;;;;;;19.76;64.04;101638.97;5050641;28;20041;-44
2023/07/17 04:30:14;;;;;;;12.50;4.38;;;;;;;19.85;63.80;101639.72;5049868;28;20033;-44
2023/07/17 04:32:39;;;;;;;13.32;4.80;;;;;;;19.65;64.52;101643.47;5050011;28;20093;-44
2023/07/17 04:35:05;;;;;;;11.63;4.18;;;;;;;19.84;63.96;101645.88;5049766;28;20407;-44
2023/07/17 04:37:31;;;;;;;11.88;4.68;;;;;;;19.73;64.46;101653.09;5049227;28;20041;-44
2023/07/17 04:39:56;;;;;;;13.75;4.10;;;;;;;19.88;64.24;101649.38;5049388;28;20032;-43
2023/07/17 04:42:21;;;;;;;14.75;4.20;;;;;;;19.95;63.56;101656.31;5051282;28;20175;-42
2023/07/17 04:44:47;;;;;;;9.52;3.95;;;;;;;20.15;62.83;101653.44;5054589;28;20035;-42
2023/07/17 04:47:12;;;;;;;12.15;4.10;;;;;;;20.32;62.18;101659.38;5054937;28;20040;-42
2023/07/17 04:49:38;;;;;;;9.50;3.78;;;;;;;20.40;61.78;101665.47;5055841;28;20033;-42
2023/07/17 04:52:03;;;;;;;11.77;4.15;;;;;;;20.45;61.69;101666.25;5055622;28;20116;-44
2023/07/17 04:54:29;;;;;;;11.13;4.10;;;;;;;20.44;61.19;101674.22;5053591;28;20080;-44
2023/07/17 04:56:54;;;;;;;11.43;3.90;;;;;;;20.78;61.01;101672.84;5053993;28;20029;-43
2023/07/17 04:59:19;;;;;;;8.80;3.63;;;;;;;21.00;60.55;101676.00;5055688;28;20040;-45
2023/07/17 05:01:45;;;;;;;11.02;4.30;;;;;;;21.00;60.58;101673.34;5055811;28;20140;-43
2023/07/17 05:04:10;;;;;;;11.98;3.90;;;;;;;21.11;59.82;101681.97;5053611;28;20053;-44
2023/07/17 05:06:36;;;;;;;10.48;3.92;;;;;;;21.22;59.34;101680.06;5052617;28;20043;-44
2023/07/17 05:09:02;;;;;;;12.45;4.07;;;;;;;20.63;60.13;101681.88;5051230;28;20406;-44
2023/07/17 05:11:27;;;;;;;12.10;4.15;;;;;;;20.80;60.22;101692.22;5050832;28;20040;-43
2023/07/17 05:13:53;;;;;;;14.30;4.07;;;;;;;20.76;60.73;101697.59;5054084;28;20066;-43
2023/07/17 05:16:18;;;;;;;10.82;4.50;;;;;;;20.81;60.79;101693.97;5054831;28;20029;-46
2023/07/17 05:18:43;;;;;;;11.65;4.20;;;;;;;20.77;60.84;101694.06;5053375;28;20128;-44
2023/07/17 05:21:09;;;;;;;10.10;4.03;;;;;;;21.28;59.56;101700.31;5052474;28;20116;-43
2023/07/17 05:23:34;;;;;;;12.57;4.00;;;;;;;21.31;58.70;101706.41;5052808;28;20041;-45
2023/07/17 05:26:00;;;;;;;13.15;4.22;;;;;;;21.94;57.81;101708.75;5052010;28;20040;-44
2023/07/17 05:28:28;;;;;;;11.18;4.30;;;;;;;22.19;57.26;101709.16;5052909;28;20037;-45
2023/07/17 05:30:54;;;;;;;12.48;4.22;;;;;;;23.12;52.90;101712.31;5051544;28;20040;-45
2023/07/17 05:33:21;;;;;;;9.45;4.30;;;;;;;23.68;51.28;101713.53;5052392;28;20053;-48
2023/07/17 05:35:46;;;;;;;10.20;3.80;;;;;;;23.24;52.04;101712.00;5051838;28;20037;-50
2023/07/17 05:38:11;;;;;;;11.02;4.05;;;;;;;23.55;50.68;101713.00;5052448;28;20094;-47
2023/07/17 05:40:39;;;;;;;12.98;4.13;;;;;;;23.67;50.73;101711.78;5053210;28;20037;-45
2023/07/17 05:43:05;;;;;;;14.93;4.68;;;;;;;24.27;47.38;101711.00;5052883;28;20036;-44
2023/07/17 05:45:30;;;;;;;11.90;4.10;;;;;;;24.86;47.01;101718.00;5053362;28;20503;-46
2023/07/17 05:47:56;;;;;;;9.38;3.83;;;;;;;26.36;42.55;101718.94;5051862;28;20511;-48
2023/07/17 05:50:22;;;;;;;9.95;3.95;;;;;;;24.89;45.38;101714.38;5052304;28;20041;-46
2023/07/17 05:52:47;;;;;;;10.90;3.80;;;;;;;25.17;45.02;101727.69;5052695;28;20037;-43
2023/07/17 05:55:12;;;;;;;16.83;3.90;;;;;;;25.14;44.67;101725.09;5053364;28;20128;-44
2023/07/17 05:57:38;;;;;;;10.32;3.95;;;;;;;25.16;44.76;101728.59;5053363;28;20060;-43
2023/07/17 06:00:04;;;;;;;13.10;3.83;;;;;;;24.44;46.70;101743.34;5051940;28;20113;-45
2023/07/17 06:02:29;;;;;;;11.93;3.80;;;;;;;23.96;48.01;101740.28;5052395;28;20045;-44
2023/07/17 06:04:55;;;;;;;14.65;3.90;;;;;;;22.88;51.48;101741.28;5050839;28;20037;-48
2023/07/17 06:07:20;;;;;;;11.23;3.53;;;;;;;23.70;49.65;101741.88;5051521;28;20542;-47
2023/07/17 06:09:45;;;;;;;11.45;3.78;;;;;;;24.02;47.33;101735.66;5051693;28;20088;-45
2023/07/17 06:12:11;;;;;;;10.13;3.83;;;;;;;24.73;45.76;101745.97;5051834;28;20040;-47
2023/07/17 06:14:37;;;;;;;8.23;3.33;;;;;;;24.63;44.91;101739.19;5051516;28;20165;-46
2023/07/17 06:17:02;;;;;;;9.98;3.70;;;;;;;25.20;45.30;101746.25;5050823;28;20039;-46
2023/07/17 06:19:28;;;;;;;10.55;3.45;;;;;;;25.36;44.44;101743.03;5050902;28;20048;-45
2023/07/17 06:21:53;;;;;;;9.77;3.60;;;;;;;25.25;43.81;101757.66;5050534;28;20033;-49
2023/07/17 06:24:19;;;;;;;10.40;3.50;;;;;;;25.15;43.16;101750.88;5051070;28;20032;-47
2023/07/17 06:26:44;;;;;;;13.80;3.88;;;;;;;25.85;42.98;101750.22;5050558;28;20049;-49
2023/07/17 06:29:10;;;;;;;9.82;3.35;;;;;;;25.81;43.00;101755.72;5050576;28;20381;-51
2023/07/17 06:31:36;;;;;;;8.00;3.22;;;;;;;25.68;42.95;101754.41;5051175;28;20067;-48
2023/07/17 06:34:02;;;;;;;8.90;3.13;;;;;;;25.68;42.33;101754.41;5050409;28;20036;-50
2023/07/17 06:36:27;;;;;;;9.13;3.30;;;;;;;25.96;41.98;101760.50;5050954;28;20033;-44
2023/07/17 06:38:53;;;;;;;11.75;3.50;;;;;;;26.82;40.84;101759.00;5050063;28;20041;-44
2023/07/17 06:41:18;;;;;;;10.95;3.50;;;;;;;26.05;41.12;101760.16;5050414;28;20039;-46
2023/07/17 06:43:44;;;;;;;8.25;3.15;;;;;;;25.34;42.80;101757.34;5050272;28;20067;-45
2023/07/17 06:46:09;;;;;;;10.95;3.25;;;;;;;25.70;41.64;101758.78;5051042;28;20025;-44
2023/07/17 06:48:35;;;;;;;7.28;2.95;;;;;;;26.43;40.34;101765.91;5051468;28;20041;-46
2023/07/17 06:51:00;;;;;;;8.82;2.67;;;;;;;26.98;38.08;101753.94;5051388;28;20090;-43
2023/07/17 06:53:25;;;;;;;7.07;2.63;;;;;;;26.10;39.01;101766.22;5051794;28;20510;-46
2023/07/17 06:55:58;;;;;;;10.40;2.90;;;;;;;25.97;40.11;101762.25;5050377;28;20041;-51
2023/07/17 06:58:24;;;;;;;8.00;2.70;;;;;;;25.96;39.75;101765.84;5032651;28;20033;-46
2023/07/17 07:00:56;;;;;;;7.53;2.80;;;;;;;26.55;39.60;101763.63;5049249;28;20037;-48
2023/07/17 07:03:22;;;;;;;7.23;2.60;;;;;;;25.55;41.28;101764.63;5050218;28;20033;-50
2023/07/17 07:06:00;;;;;;;11.48;3.10;;;;;;;24.97;42.28;101769.22;5049223;28;20063;-44
2023/07/17 07:08:28;;;;;;;7.15;2.47;;;;;;;24.75;42.50;101781.47;5050029;28;20083;-49
2023/07/17 07:10:56;;;;;;;9.43;2.97;;;;;;;24.74;41.83;101778.84;5049041;28;20033;-50
2023/07/17 07:13:22;;;;;;;9.10;3.10;;;;;;;24.54;42.97;101782.97;5049191;28;20029;-45
2023/07/17 07:15:48;;;;;;;11.65;2.90;;;;;;;24.55;42.44;101789.19;5048451;28;20498;-47
2023/07/17 07:18:13;;;;;;;8.80;2.53;;;;;;;26.05;38.85;101791.34;5045384;28;20050;-49
2023/07/17 07:20:39;;;;;;;6.00;2.28;;;;;;;26.70;37.46;101790.72;5026132;28;20562;-48
2023/07/17 07:23:05;;;;;;;5.78;2.30;;;;;;;27.66;34.22;101801.06;5028874;28;20021;-45
2023/07/17 07:25:30;;;;;;;4.28;2.17;;;;;;;27.91;33.16;101801.75;5028201;28;20471;-49
2023/07/17 07:27:56;;;;;;;6.18;2.45;;;;;;;27.77;34.47;101805.03;5029335;28;20037;-45
2023/07/17 07:30:21;;;;;;;5.32;2.13;;;;;;;29.02;32.54;101799.31;5029565;28;20116;-47
2023/07/17 07:32:47;;;;;;;8.15;2.20;;;;;;;27.89;33.69;101811.66;5029643;28;20079;-49
2023/07/17 07:35:13;;;;;;;5.32;2.05;;;;;;;27.43;33.93;101807.38;5029881;28;20388;-52
2023/07/17 07:37:39;;;;;;;6.60;2.28;;;;;;;27.58;34.15;101808.56;5029888;28;20037;-46
2023/07/17 07:40:06;;;;;;;7.25;2.30;;;;;;;27.93;34.30;101804.38;5029284;28;20083;-49
2023/07/17 07:42:32;;;;;;;5.40;2.20;;;;;;;26.94;36.80;101813.88;5030021;28;20029;-45
2023/07/17 07:44:58;;;;;;;5.65;2.30;;;;;;;27.00;36.47;101808.28;5029397;28;20492;-45
2023/07/17 07:47:23;;;;;;;7.13;2.22;;;;;;;25.90;37.05;101821.31;5029761;28;20561;-49
2023/07/17 07:49:48;;;;;;;6.85;2.47;;;;;;;25.40;38.30;101818.53;5028833;28;20626;-43
2023/07/17 07:52:13;;;;;;;8.00;2.50;;;;;;;24.57;41.53;101819.38;5029415;28;20042;-46
2023/07/17 07:54:39;;;;;;;9.38;2.50;;;;;;;23.39;43.03;101829.59;5029177;28;20054;-47
2023/07/17 07:57:05;;;;;;;10.18;2.53;;;;;;;23.75;44.00;101833.16;5029749;28;20402;-51
2023/07/17 07:59:30;;;;;;;8.02;2.70;;;;;;;23.86;42.66;101835.53;5028608;28;20045;-47
2023/07/17 08:01:55;;;;;;;5.97;2.40;;;;;;;23.60;43.25;101833.56;5029388;28;20095;-45
2023/07/17 08:04:21;;;;;;;4.90;2.08;;;;;;;23.54;42.64;101838.16;5029476;28;20045;-44
2023/07/17 08:06:46;;;;;;;5.68;2.28;;;;;;;24.13;42.66;101839.25;5029214;28;20033;-49
2023/07/17 08:09:11;;;;;;;5.43;2.20;;;;;;;25.15;40.13;101833.59;5026611;28;20512;-45
2023/07/17 08:11:38;;;;;;;5.97;2.20;;;;;;;25.53;37.99;101832.34;5029396;28;20029;-47
2023/07/17 08:14:03;;;;;;;5.47;2.00;;;;;;;25.69;37.90;101830.94;5028993;28;20034;-46
2023/07/17 08:16:29;;;;;;;6.13;2.35;;;;;;;26.01;37.96;101844.06;5029539;28;20036;-48
2023/07/17 08:18:54;;;;;;;6.47;2.10;;;;;;;25.67;38.87;101832.78;5030882;28;20025;-48
2023/07/17 08:21:19;;;;;;;4.47;1.92;;;;;;;25.54;40.35;101837.66;5032560;28;20033;-50
2023/07/17 08:23:45;;;;;;;6.78;2.35;;;;;;;25.83;39.58;101842.03;5033643;28;20076;-44
2023/07/17 08:26:11;;;;;;;8.65;2.08;;;;;;;25.53;40.33;101841.22;5033301;28;20091;-47
2023/07/17 08:28:36;;;;;;;9.82;2.20;;;;;;;24.44;40.58;101847.28;5033371;28;20038;-44
2023/07/17 08:31:03;;;;;;;6.00;2.20;;;;;;;24.14;41.23;101851.66;5032619;28;20401;-50
2023/07/17 08:33:28;;;;;;;6.18;1.90;;;;;;;24.40;40.44;101850.94;5033239;28;20554;-45
2023/07/17 08:35:53;;;;;;;4.80;2.10;;;;;;;24.37;40.19;101857.25;5033371;28;20037;-44
2023/07/17 08:38:19;;;;;;;5.05;2.03;;;;;;;24.98;39.47;101851.00;5032865;28;20527;-47
2023/07/17 08:40:53;;;;;;;7.32;2.10;;;;;;;24.35;40.55;101856.41;5032744;28;20528;-47
2023/07/17 08:43:19;;;;;;;6.18;1.80;;;;;;;23.96;42.74;101874.34;5032912;28;20061;-50
2023/07/17 08:45:46;;;;;;;7.38;2.70;;;;;;;24.37;42.48;101859.03;5031871;28;20412;-51
2023/07/17 08:48:13;;;;;;;7.82;2.40;;;;;;;24.06;42.88;101862.50;5032682;28;20488;-48
2023/07/17 08:50:38;;;;;;;8.48;2.10;;;;;;;24.56;41.60;101873.59;5032917;28;20041;-49
2023/07/17 08:53:06;;;;;;;9.77;1.98;;;;;;;24.04;42.76;101859.00;5034074;28;20171;-44
2023/07/17 08:55:32;;;;;;;7.93;2.28;;;;;;;24.56;42.19;101854.94;5034570;28;20033;-45
2023/07/17 08:58:00;;;;;;;7.90;2.20;;;;;;;24.75;40.79;101863.28;5034850;28;20029;-48
2023/07/17 09:00:27;;;;;;;6.60;2.00;;;;;;;24.44;41.00;101856.16;5032325;28;20033;-45
2023/07/17 09:02:53;;;;;;;7.60;2.17;;;;;;;24.43;42.17;101862.41;5033749;28;20056;-49
2023/07/17 09:05:18;;;;;;;6.78;1.92;;;;;;;24.33;41.58;101860.06;5034164;28;20492;-43
2023/07/17 09:07:44;;;;;;;7.30;2.15;;;;;;;24.27;41.69;101858.44;5034785;28;20078;-46
2023/07/17 09:10:20;;;;;;;6.05;2.10;;;;;;;24.13;42.27;101858.78;5033078;28;20030;-48
2023/07/17 09:12:59;;;;;;;8.40;2.22;;;;;;;24.48;41.17;101862.28;5032796;28;20029;-47
2023/07/17 09:15:27;;;;;;;6.63;2.15;;;;;;;24.34;41.83;101856.44;5031927;28;20456;-48
2023/07/17 09:17:53;;;;;;;8.40;2.20;;;;;;;24.58;42.05;101869.94;5032508;28;20546;-46
2023/07/17 09:20:20;;;;;;;7.07;2.38;;;;;;;24.44;42.43;101871.28;5031490;28;20120;-49
2023/07/17 09:22:46;;;;;;;6.45;1.90;;;;;;;24.06;42.47;101866.97;5032470;28;20039;-46
2023/07/17 09:25:13;;;;;;;10.63;2.50;;;;;;;23.79;43.81;101866.75;5032135;28;20045;-51
2023/07/17 09:27:42;;;;;;;6.88;2.40;;;;;;;24.19;42.94;101874.63;5032134;28;20052;-48
2023/07/17 09:30:08;;;;;;;9.73;2.30;;;;;;;23.65;42.91;101878.69;5030805;28;20033;-46
2023/07/17 09:32:34;;;;;;;7.80;2.00;;;;;;;23.98;43.18;101871.59;5032671;28;20609;-46
2023/07/17 09:35:07;;;;;;;9.40;2.35;;;;;;;23.92;42.82;101880.63;5032157;28;20041;-44
2023/07/17 09:37:35;;;;;;;11.77;2.85;;;;;;;23.81;42.71;101872.06;5031893;28;20033;-47
2023/07/17 09:40:07;;;;;;;9.18;2.47;;;;;;;23.99;42.27;101878.69;5031573;28;20038;-45
2023/07/17 09:42:36;;;;;;;6.43;2.10;;;;;;;23.79;40.87;101877.41;5031811;28;20139;-48
2023/07/17 09:45:03;;;;;;;6.63;1.80;;;;;;;23.93;40.33;101885.06;5031729;28;20112;-44
2023/07/17 09:47:29;;;;;;;6.15;2.17;;;;;;;24.24;39.77;101877.16;5032088;28;20038;-46
2023/07/17 09:49:56;;;;;;;7.30;2.00;;;;;;;24.30;40.54;101878.78;5031728;28;20043;-47
2023/07/17 09:52:22;;;;;;;5.45;2.15;;;;;;;24.85;39.11;101867.41;5031720;28;20429;-47
2023/07/17 09:54:51;;;;;;;5.13;1.85;;;;;;;24.11;39.29;101876.56;5032150;28;20129;-51
2023/07/17 09:57:29;;;;;;;6.55;2.15;;;;;;;24.50;40.73;101887.97;5032086;28;20514;-48
2023/07/17 09:59:57;;;;;;;9.10;2.80;;;;;;;24.44;41.65;101889.94;5031856;28;20045;-46
2023/07/17 10:02:28;;;;;;;9.65;2.78;;;;;;;23.58;44.43;101893.06;5031530;28;20756;-47
2023/07/17 10:04:57;;;;;;;8.07;2.97;;;;;;;24.33;43.50;101889.38;5031484;28;20059;-47
2023/07/17 10:07:23;;;;;;;8.77;2.90;;;;;;;24.40;43.27;101891.78;5031043;28;20080;-48
2023/07/17 10:09:49;;;;;;;7.57;2.75;;;;;;;24.03;43.17;101889.22;5030926;28;20053;-49
2023/07/17 10:12:17;;;;;;;10.10;3.10;;;;;;;24.25;43.68;101898.44;5030296;28;20053;-45
2023/07/17 10:14:44;;;;;;;13.75;3.45;;;;;;;24.39;44.27;101900.75;5031555;28;20040;-50
2023/07/17 10:17:32;;;;;;;12.82;3.50;;;;;;;24.44;44.13;101895.28;5031020;28;20035;-47
2023/07/17 10:20:00;;;;;;;9.23;3.38;;;;;;;24.92;41.80;101885.88;5030924;28;20040;-45
2023/07/17 10:22:45;;;;;;;8.07;2.90;;;;;;;24.99;42.04;101889.25;5030791;28;20381;-44
2023/07/17 10:25:17;;;;;;;9.48;3.55;;;;;;;25.24;40.69;101892.91;5030567;28;20033;-49
2023/07/17 10:27:50;;;;;;;22.63;3.75;;;;;;;24.69;46.14;101909.66;5029236;28;20131;-46
2023/07/17 10:30:33;;;;;;;10.63;3.78;;;;;;;24.73;47.64;101929.97;5030447;28;20091;-49
2023/07/17 10:33:20;;;;;;;13.88;3.85;;;;;;;23.89;51.41;101920.69;5031742;28;20029;-44
2023/07/17 10:35:57;;;;;;;10.77;3.75;;;;;;;23.64;52.10;101924.84;5031670;28;20034;-45
2023/07/17 10:38:25;;;;;;;11.07;3.75;;;;;;;23.96;53.88;101924.94;5030679;28;20111;-47
2023/07/17 10:41:16;;;;;;;10.93;3.97;;;;;;;24.73;52.25;101921.97;5029835;28;20083;-43
2023/07/17 10:44:03;;;;;;;11.13;3.88;;;;;;;24.17;52.27;101921.72;5028766;28;20407;-46
2023/07/17 10:46:32;;;;;;;8.00;3.92;;;;;;;24.22;51.22;101929.59;5030499;28;20397;-48
2023/07/17 10:49:11;;;;;;;11.52;4.18;;;;;;;24.00;51.64;101925.72;5030940;28;20041;-48
2023/07/17 10:51:41;;;;;;;13.18;3.85;;;;;;;23.99;51.53;101927.50;5030631;28;20044;-45
2023/07/17 10:54:06;;;;;;;8.88;3.80;;;;;;;23.78;53.23;101918.28;5034418;28;20041;-48
2023/07/17 10:56:32;;;;;;;11.02;4.10;;;;;;;23.57;53.31;101928.56;5036444;28;20037;-44
2023/07/17 10:58:58;;;;;;;8.60;3.90;;;;;;;23.15;55.38;101923.28;5034397;28;20120;-46
2023/07/17 11:01:23;;;;;;;8.77;3.55;;;;;;;22.87;53.48;101930.97;5029455;28;20080;-45
2023/07/17 11:03:48;;;;;;;8.68;3.63;;;;;;;22.67;55.69;101931.34;5030607;28;20025;-52
2023/07/17 11:06:15;;;;;;;11.00;3.92;;;;;;;23.26;55.21;101939.88;5029984;28;20590;-44
2023/07/17 11:08:48;;;;;;;12.05;3.75;;;;;;;22.75;53.08;101925.06;5030265;28;20068;-46
2023/07/17 11:11:13;;;;;;;9.85;3.58;;;;;;;23.08;53.37;101928.78;5029269;28;20515;-45
2023/07/17 11:13:39;;;;;;;10.70;3.55;;;;;;;22.98;49.97;101936.09;5030350;28;20029;-43
2023/07/17 11:16:05;;;;;;;8.80;3.55;;;;;;;22.78;48.84;101931.16;5030094;28;20049;-45
2023/07/17 11:18:31;;;;;;;12.30;4.15;;;;;;;23.38;48.88;101936.94;5030195;28;20030;-43